createdAt,value
2022-09-25T09:18:56.874Z,17.14
2022-09-25T09:21:51.321Z,17.19
2022-09-25T09:24:26.870Z,17.16
2022-09-25T09:27:03.571Z,17.10
2022-09-25T09:29:36.482Z,17.13
2022-09-25T09:32:21.938Z,17.26
2022-09-25T09:35:07.002Z,17.15
2022-09-25T09:37:58.478Z,17.30
2022-09-25T09:40:54.032Z,17.28
2022-09-25T09:43:38.705Z,17.36
2022-09-25T09:46:21.396Z,17.36
2022-09-25T09:49:16.495Z,17.36
2022-09-25T09:51:52.862Z,17.37
2022-09-25T09:54:35.986Z,17.46
2022-09-25T09:57:11.027Z,17.42
2022-09-25T09:59:46.210Z,17.45
2022-09-25T10:02:40.839Z,17.55
2022-09-25T10:05:24.590Z,17.53
2022-09-25T10:07:52.078Z,17.45
2022-09-25T10:10:19.821Z,17.48
2022-09-25T10:12:50.987Z,17.52
2022-09-25T10:15:33.745Z,17.64
2022-09-25T10:18:03.064Z,17.61
2022-09-25T10:20:39.783Z,17.68
2022-09-25T10:23:22.311Z,17.80
2022-09-25T10:25:52.454Z,17.76
2022-09-25T10:28:27.528Z,17.85
2022-09-25T10:30:54.732Z,17.83
2022-09-25T10:33:27.150Z,17.88
2022-09-25T10:35:54.915Z,17.89
2022-09-25T10:38:34.545Z,17.97
2022-09-25T10:41:12.187Z,18.00
2022-09-25T10:43:56.041Z,18.07
2022-09-25T10:46:52.167Z,18.07
2022-09-25T10:49:42.997Z,18.04
2022-09-25T10:52:11.951Z,18.04
2022-09-25T10:54:43.870Z,18.03
2022-09-25T10:57:23.227Z,18.13
2022-09-25T10:59:51.479Z,18.06
2022-09-25T11:02:48.408Z,18.15
2022-09-25T11:05:19.967Z,18.08
2022-09-25T11:07:55.322Z,18.11
2022-09-25T11:10:37.033Z,18.06
2022-09-25T11:13:09.387Z,18.10
2022-09-25T11:15:39.124Z,18.06
2022-09-25T11:18:09.044Z,18.06
2022-09-25T11:20:36.805Z,18.05
2022-09-25T11:23:21.935Z,18.05
2022-09-25T11:26:06.177Z,18.15
2022-09-25T11:29:04.563Z,18.19
2022-09-25T11:31:42.766Z,18.15
2022-09-25T11:34:19.298Z,18.14
2022-09-25T11:37:00.418Z,18.11
2022-09-25T11:39:57.629Z,18.16
2022-09-25T11:42:49.230Z,18.24
2022-09-25T11:45:24.562Z,18.16
2022-09-25T11:48:05.375Z,18.17
2022-09-25T11:50:47.582Z,18.18
2022-09-25T11:53:14.322Z,18.12
2022-09-25T11:55:47.048Z,18.18
2022-09-25T11:58:33.246Z,18.22
2022-09-25T12:01:06.187Z,18.16
2022-09-25T12:03:42.078Z,18.18
2022-09-25T12:06:28.794Z,18.32
2022-09-25T12:09:19.853Z,18.33
2022-09-25T12:11:59.010Z,18.35
2022-09-25T12:14:31.762Z,18.29
2022-09-25T12:17:17.810Z,18.44
2022-09-25T12:20:13.227Z,18.46
2022-09-25T12:23:14.291Z,18.48
2022-09-25T12:25:48.063Z,18.45
2022-09-25T12:28:29.377Z,18.51
2022-09-25T12:30:57.100Z,18.46
2022-09-25T12:33:28.056Z,18.54
2022-09-25T12:36:04.204Z,18.59
2022-09-25T12:38:55.446Z,18.73
2022-09-25T12:41:41.406Z,18.74
2022-09-25T12:44:26.582Z,18.85
2022-09-25T12:47:02.918Z,18.89
2022-09-25T12:49:40.840Z,19.00
2022-09-25T12:52:12.968Z,19.04
2022-09-25T12:55:07.382Z,19.13
2022-09-25T12:57:48.299Z,19.16
2022-09-25T13:00:21.079Z,19.24
2022-09-25T13:02:54.566Z,19.28
2022-09-25T13:05:34.770Z,19.35
2022-09-25T13:08:24.422Z,19.39
2022-09-25T13:11:02.181Z,19.52
2022-09-25T13:13:36.369Z,19.54
2022-09-25T13:16:03.310Z,19.62
2022-09-25T13:18:31.233Z,19.71
2022-09-25T13:21:32.571Z,19.91
2022-09-25T13:24:00.239Z,19.89
2022-09-25T13:26:27.803Z,19.95
2022-09-25T13:29:23.860Z,20.20
2022-09-25T13:31:53.544Z,20.12
2022-09-25T13:34:23.039Z,20.24
2022-09-25T13:36:54.152Z,20.34
2022-09-25T13:40:00.938Z,20.51
2022-09-25T13:42:40.036Z,20.53
2022-09-25T13:45:33.986Z,20.64
2022-09-25T13:48:26.365Z,20.70
2022-09-25T13:51:18.526Z,20.75
2022-09-25T13:53:56.540Z,20.73
2022-09-25T13:56:25.716Z,20.71
2022-09-25T13:59:19.395Z,20.78
2022-09-25T14:01:49.178Z,20.75
2022-09-25T14:04:15.648Z,20.74
2022-09-25T14:06:43.132Z,21.07
2022-09-25T14:09:12.761Z,20.83
2022-09-25T14:11:42.592Z,20.81
2022-09-25T14:14:22.660Z,20.87
2022-09-25T14:16:52.236Z,20.88
2022-09-25T14:19:26.996Z,20.91
2022-09-25T14:21:54.004Z,20.88
2022-09-25T14:24:21.839Z,20.92
2022-09-25T14:26:51.345Z,20.94
2022-09-25T14:29:22.915Z,20.98
2022-09-25T14:32:50.353Z,21.07
2022-09-25T14:35:25.081Z,21.13
2022-09-25T14:38:19.419Z,21.18
2022-09-25T14:41:31.232Z,21.18
2022-09-25T14:44:17.750Z,21.13
2022-09-25T14:46:48.920Z,21.08
2022-09-25T14:49:26.669Z,21.10
2022-09-25T14:51:57.779Z,21.05
2022-09-25T14:54:29.299Z,21.03
2022-09-25T14:56:58.485Z,21.03
2022-09-25T14:59:39.745Z,21.09
2022-09-25T15:02:20.156Z,21.07
2022-09-25T15:04:46.826Z,20.99
2022-09-25T15:07:17.317Z,20.99
2022-09-25T15:09:49.343Z,20.96
2022-09-25T15:12:30.985Z,21.03
2022-09-25T15:15:10.201Z,20.99
2022-09-25T15:20:15.517Z,20.90
2022-09-25T15:22:47.167Z,20.87
2022-09-25T15:25:26.443Z,20.89
2022-09-25T15:27:53.766Z,20.78
2022-09-25T15:30:20.718Z,20.75
2022-09-25T15:32:51.858Z,20.72
2022-09-25T15:35:24.881Z,20.70
2022-09-25T15:38:10.722Z,20.72
2022-09-25T15:40:38.134Z,20.58
2022-09-25T15:43:13.197Z,20.58
2022-09-25T15:45:55.301Z,20.56
2022-09-25T15:48:29.301Z,20.42
2022-09-25T15:50:57.649Z,20.33
2022-09-25T15:53:30.543Z,20.30
2022-09-25T15:56:14.133Z,20.29
2022-09-25T15:58:51.626Z,20.24
2022-09-25T16:01:42.561Z,20.14
2022-09-25T16:04:36.546Z,20.03
2022-09-25T16:07:24.318Z,20.14
2022-09-25T16:09:54.175Z,19.95
2022-09-25T16:12:42.046Z,19.97
2022-09-25T16:15:26.729Z,20.00
2022-09-25T16:18:05.424Z,19.82
2022-09-25T16:20:35.948Z,19.81
2022-09-25T16:23:05.797Z,19.77
2022-09-25T16:25:38.078Z,19.77
2022-09-25T16:28:16.823Z,19.73
2022-09-25T16:31:00.869Z,19.72
2022-09-25T16:33:33.784Z,19.63
2022-09-25T16:36:18.792Z,19.62
2022-09-25T16:39:13.215Z,19.71
2022-09-25T16:41:48.676Z,19.55
2022-09-25T16:44:19.605Z,19.49
2022-09-25T16:46:52.348Z,19.47
2022-09-25T16:49:20.049Z,19.36
2022-09-25T16:51:48.377Z,19.33
2022-09-25T16:54:17.395Z,19.29
2022-09-25T16:56:46.001Z,19.27
2022-09-25T16:59:24.451Z,19.33
2022-09-25T17:01:53.353Z,19.20
2022-09-25T17:04:23.896Z,19.19
2022-09-25T17:06:50.692Z,19.12
2022-09-25T17:09:18.249Z,19.10
2022-09-25T17:11:47.799Z,19.10
2022-09-25T17:14:25.608Z,19.17
2022-09-25T17:16:54.638Z,19.09
2022-09-25T17:19:21.996Z,19.07
2022-09-25T17:21:51.456Z,19.07
2022-09-25T17:24:20.371Z,19.08
2022-09-25T17:26:47.400Z,19.06
2022-09-25T17:29:14.092Z,19.06
2022-09-25T17:31:40.834Z,19.06
2022-09-25T17:34:30.160Z,19.15
2022-09-25T17:36:57.943Z,19.08
2022-09-25T17:39:24.508Z,19.09
2022-09-25T17:41:50.970Z,19.45
2022-09-25T17:44:19.367Z,19.13
2022-09-25T17:46:46.020Z,19.10
2022-09-25T17:49:12.776Z,19.06
2022-09-25T17:51:40.060Z,19.04
2022-09-25T17:54:06.679Z,19.02
2022-09-25T17:56:37.776Z,19.00
2022-09-25T17:59:05.672Z,18.99
2022-09-25T18:01:38.367Z,18.97
2022-09-25T18:04:25.588Z,19.10
2022-09-25T18:06:52.236Z,18.94
2022-09-25T18:09:19.494Z,18.91
2022-09-25T18:11:46.071Z,18.88
2022-09-25T18:14:13.383Z,19.27
2022-09-25T18:16:42.608Z,18.93
2022-09-25T18:19:38.908Z,18.97
2022-09-25T18:22:18.973Z,18.83
2022-09-25T18:24:47.047Z,18.80
2022-09-25T18:27:15.572Z,18.80
2022-09-25T18:29:44.665Z,18.76
2022-09-25T18:32:11.642Z,18.75
2022-09-25T18:34:38.136Z,18.73
2022-09-25T18:37:04.620Z,19.11
2022-09-25T18:39:31.293Z,18.74
2022-09-25T18:41:57.778Z,18.67
2022-09-25T18:44:24.214Z,19.04
2022-09-25T18:46:51.865Z,18.63
2022-09-25T18:49:19.255Z,18.56
2022-09-25T18:51:46.025Z,18.49
2022-09-25T18:54:14.227Z,18.42
2022-09-25T18:56:41.641Z,18.34
2022-09-25T18:59:08.460Z,18.27
2022-09-25T19:01:35.905Z,18.20
2022-09-25T19:04:02.682Z,18.13
2022-09-25T19:06:29.150Z,18.49
2022-09-25T19:08:57.244Z,18.06
2022-09-25T19:11:26.038Z,18.00
2022-09-25T19:13:53.083Z,17.90
2022-09-25T19:16:20.606Z,17.87
2022-09-25T19:18:47.244Z,17.82
2022-09-25T19:21:15.274Z,18.19
2022-09-25T19:23:43.292Z,17.82
2022-09-25T19:26:14.975Z,17.85
2022-09-25T19:28:42.236Z,17.76
2022-09-25T19:31:14.973Z,17.81
2022-09-25T19:33:41.687Z,17.76
2022-09-25T19:36:10.708Z,18.11
2022-09-25T19:38:38.725Z,17.79
2022-09-25T19:41:12.252Z,17.79
2022-09-25T19:43:39.617Z,17.71
2022-09-25T19:46:06.895Z,17.68
2022-09-25T19:48:33.697Z,17.66
2022-09-25T19:51:06.213Z,17.67
2022-09-25T19:53:33.117Z,17.56
2022-09-25T19:55:59.889Z,17.50
2022-09-25T19:58:26.401Z,17.47
2022-09-25T20:00:54.175Z,17.43
2022-09-25T20:03:20.693Z,17.35
2022-09-25T20:05:49.002Z,17.71
2022-09-25T20:08:15.941Z,17.26
2022-09-25T20:10:42.522Z,17.15
2022-09-25T20:13:10.105Z,17.47
2022-09-25T20:15:36.903Z,17.05
2022-09-25T20:18:03.508Z,16.92
2022-09-25T20:20:29.976Z,17.25
2022-09-25T20:22:57.181Z,16.83
2022-09-25T20:25:25.028Z,16.74
2022-09-25T20:27:52.389Z,16.69
2022-09-25T20:30:19.267Z,16.63
2022-09-25T20:32:46.055Z,16.59
2022-09-25T20:35:13.428Z,16.55
2022-09-25T20:37:40.060Z,16.54
2022-09-25T20:40:06.601Z,16.90
2022-09-25T20:42:34.060Z,16.55
2022-09-25T20:45:00.680Z,16.52
2022-09-25T20:47:30.288Z,16.86
2022-09-25T20:49:57.459Z,16.56
2022-09-25T20:52:23.944Z,16.54
2022-09-25T20:54:50.489Z,16.53
2022-09-25T20:57:16.995Z,16.86
2022-09-25T20:59:43.520Z,16.54
2022-09-25T21:02:10.487Z,16.49
2022-09-25T21:04:37.162Z,16.45
2022-09-25T21:07:03.881Z,16.80
2022-09-25T21:09:31.285Z,16.48
2022-09-25T21:11:57.849Z,16.44
2022-09-25T21:14:27.305Z,16.79
2022-09-25T21:16:56.383Z,16.47
2022-09-25T21:19:23.681Z,16.44
2022-09-25T21:21:50.495Z,16.44
2022-09-25T21:24:19.819Z,16.44
2022-09-25T21:26:46.995Z,16.43
2022-09-25T21:29:16.063Z,16.40
2022-09-25T21:31:48.408Z,16.36
2022-09-25T21:34:16.396Z,16.33
2022-09-25T21:36:43.827Z,16.30
2022-09-25T21:39:11.004Z,16.28
2022-09-25T21:41:37.644Z,16.29
2022-09-25T21:44:05.751Z,16.65
2022-09-25T21:46:33.663Z,16.34
2022-09-25T21:49:03.544Z,16.30
2022-09-25T21:51:36.014Z,16.28
2022-09-25T21:54:02.861Z,16.17
2022-09-25T21:56:31.606Z,16.12
2022-09-25T21:59:00.996Z,16.08
2022-09-25T22:01:33.535Z,16.06
2022-09-25T22:04:00.137Z,16.02
2022-09-25T22:06:33.695Z,16.07
2022-09-25T22:09:12.360Z,16.07
2022-09-25T22:11:39.772Z,15.97
2022-09-25T22:14:09.802Z,15.93
2022-09-25T22:16:41.350Z,15.89
2022-09-25T22:19:18.790Z,15.88
2022-09-25T22:21:47.531Z,15.84
2022-09-25T22:24:14.580Z,15.79
2022-09-25T22:26:43.084Z,15.76
2022-09-25T22:29:10.567Z,15.70
2022-09-25T22:31:44.346Z,15.68
2022-09-25T22:34:26.017Z,15.70
2022-09-25T22:36:58.721Z,15.63
2022-09-25T22:39:26.564Z,15.59
2022-09-25T22:41:53.934Z,15.57
2022-09-25T22:44:20.982Z,15.57
2022-09-25T22:46:47.617Z,15.55
2022-09-25T22:49:14.116Z,15.89
2022-09-25T22:51:40.619Z,15.61
2022-09-25T22:54:07.402Z,15.59
2022-09-25T22:56:35.301Z,15.57
2022-09-25T22:59:05.514Z,15.58
2022-09-25T23:01:38.971Z,15.60
